Aviation Digital Data Service (ADDS)

Output produced by TAFs form (1421 UTC 08 February 2016)
found at http://aviationweather.gov/adds/tafs/
 
KCNM 081120Z 0812/0912 05009KT P6SM FEW250 
     FM081600 16005KT P6SM SKC